Glens Falls, NY

9:16 PM EDT on May 27, 2015 (GMT -0400)
Glens Falls, NY | | Change Station
CLOSE
Current Station
Personal Weather Station
Location: Glens Falls, NY
Elevation: 331 ft
Nearby Weather Stations

Elev 331 ft 43.31 °N, 73.64 °W | Updated 9 minutes ago

Scattered Clouds
Scattered Clouds
72.3 °F
Feels Like 77 °F
N
0.0
Wind Variable Wind from NNW

Today
High -- | Low -- °F
--% Chance of Precip.
Yesterday
High -- | Low -- °F
Precip. -- in
5:20 AM 8:23 PM
Waxing Gibbous, 71% visible
Pressure 30.06 in
Visibility 10.0 miles
Clouds Scattered Clouds 900 ft
Heat Index 77 °F
Dew Point 55 °F
Humidity 55%
Rainfall 0.02 in
Snow Depth Not available.
UV 0 out of 12
Pollen 6.60 out of 12
Air Quality Not available.
Flu Activity Widespread
SPECI KGFL 280102Z AUTO 20007KT 10SM SCT009 20/19 A3006 RMK AO2 T02000189

More Conditions Fewer Conditions

Pressure 30.06 in
Visibility 10.0 miles
Clouds Scattered Clouds 900 ft
Heat Index 77 °F
Dew Point 55 °F
Humidity 55%
Rainfall 0.02 in
Snow Depth Not available.
UV 0 out of 12
Pollen 6.60 out of 12
Air Quality Not available.
Flu Activity Widespread
SPECI KGFL 280102Z AUTO 20007KT 10SM SCT009 20/19 A3006 RMK AO2 T02000189

More Conditions Fewer Conditions

10-Day Weather Forecast

Almanac

Astronomy

May. 27, 2015 Rise Set
Actual Time
Civil Twilight
Nautical Twilight
Astronomical Twilight
Moon
Length of Visible Light
Length of Day
Tomorrow will be .
, % of the Moon is Illuminated

Today's Extremes

State Highs State Lows

Community

WunderPhotos

Upload Photos

1,824,843 photos uploaded!

WunderBlogs® & News

Nearby

Air Quality

  Air Quality AQ Index Pollutant
Not available.

Snow Depth

Station Depth Elevation

Earthquake Activity

City Distance Mag. Time & Date
Minimum magnitude displayed is 2.5.

Coastal Water Temperatures

Place Temperature

Stations

Nearby Weather Stations

Station Location Temp. Windchill Dew Point Humidity Wind Precip. Elev Updated Type